עמוד ראשי
תמונות לווין תחזית 15-יוםאקליםתחזית ים סופות טרופיות ברק שדות תעופהשאלות נפוצות עלון אודות
מזג אוויר : אירופה אפריקה אמריקה הצפונית אמריקה הדרומית אסיה אוסטרליה-אוקיאניה אחר
שפות איש קשר

שטוטגרט, גרמניה

Echterdingen

קו רוחב: 48-41N, קו אורך: 009-13E, גובה: 396 m


METAR: EDDS 210750Z VRB03KT 9999 FEW018 15/10 Q1018 NOSIG
short-TAF: מיושן (50767 שעות)
long-TAF: EDDS 210500Z 2106/2206 27005KT CAVOK BECMG 2119/2121 VRB03KT

זמן: 10:14 (08:14 UTC)

תצפית מזג אוויר נוכחית

הדו"ח נערך לפני 24 דקות, בשעה 07:50 UTC  
רוח 03 קשר רוח עם כיוונים משתנים
טמפרטורת 15°C
לחות 72%
לחץ 1018 hPa
ראות 10 km או יותר
מעט עננים בגובה 1800 ft

שינוי יחידות

תחזית

הדו"ח נערך לפני 2 שעות ו 47 דקות, בשעה 05:27 UTC  
תחזית בתוקף מ 21 ב 06 UTC עד 22 ב 06 UTC
רוח 05 קשר מכיוון מערב
ראות 10 km או יותר
ללא עננים שבסיסם נמוך מ 1500 רגל או קומולונימבוס
יעשה מ
21 ב 19 UTC עד 21 ב 21 UTC
רוח 03 קשר רוח עם כיוונים משתנים
המידע באתר זה מותנה של תניית פטור
מזג אוויר : אירופה אפריקה אמריקה הצפונית אמריקה הדרומית אסיה אוסטרליה-אוקיאניה אחר
תמונות לווין תחזית 15-יוםאקליםתחזית ים סופות טרופיות ברק שדות תעופהשאלות נפוצות שפות איש קשר עלון אודות